Time;durP1;ratioP1;P1;durP2;ratioP2;P2;SDS_P1;SDS_P2;PMS_P1;PMS_P2;Temp;Humidity;BMP_temperature;BMP_pressure;BME280_temperature;BME280_humidity;BME280_pressure;Samples;Min_cycle;Max_cycle;Signal;HPM_P1;HPM_P2
2022/08/09 00:01:27;;;;;;;4.28;2.47;;;18.30;67.20;;;;;;4945728;29;20031;-67
2022/08/09 00:03:53;;;;;;;5.63;3.20;;;18.30;67.20;;;;;;4944907;28;20039;-66
2022/08/09 00:06:19;;;;;;;6.53;3.00;;;18.20;67.30;;;;;;4942880;29;20094;-66
2022/08/09 00:08:47;;;;;;;3.90;3.05;;;18.20;67.70;;;;;;4943267;29;20039;-66
2022/08/09 00:11:14;;;;;;;3.58;2.63;;;18.20;68.10;;;;;;4939358;29;20103;-66
2022/08/09 00:13:40;;;;;;;5.50;2.90;;;18.10;68.40;;;;;;4941348;28;20031;-68
2022/08/09 00:16:06;;;;;;;5.03;2.55;;;18.10;68.40;;;;;;4948054;28;20118;-67
2022/08/09 00:18:33;;;;;;;4.20;2.55;;;18.20;68.30;;;;;;4948115;28;20035;-67
2022/08/09 00:21:01;;;;;;;4.88;3.10;;;18.20;68.40;;;;;;4947528;29;20582;-67
2022/08/09 00:23:27;;;;;;;5.40;2.88;;;18.20;68.30;;;;;;4945454;29;20031;-67
2022/08/09 00:25:53;;;;;;;5.20;2.65;;;18.20;68.20;;;;;;4943954;28;20035;-67
2022/08/09 00:28:19;;;;;;;3.80;2.70;;;18.20;68.00;;;;;;4942074;29;20028;-67
2022/08/09 00:30:44;;;;;;;4.05;2.88;;;18.20;68.00;;;;;;4941688;28;20027;-67
2022/08/09 00:33:10;;;;;;;3.45;2.22;;;18.20;68.10;;;;;;4942180;28;20040;-66
2022/08/09 00:35:36;;;;;;;4.22;2.55;;;18.30;68.30;;;;;;4948624;29;20714;-66
2022/08/09 00:38:01;;;;;;;4.43;2.50;;;18.30;68.20;;;;;;4945457;28;20101;-67
2022/08/09 00:40:27;;;;;;;2.78;1.98;;;18.30;68.40;;;;;;4945523;29;20031;-67
2022/08/09 00:42:53;;;;;;;3.13;2.55;;;18.30;68.50;;;;;;4944163;29;20038;-67
2022/08/09 00:45:19;;;;;;;2.65;2.42;;;18.30;68.50;;;;;;4942320;29;20070;-67
2022/08/09 00:47:44;;;;;;;3.40;2.53;;;18.30;68.50;;;;;;4942465;28;20094;-67
2022/08/09 00:50:10;;;;;;;4.35;2.40;;;18.30;68.40;;;;;;4939315;29;20032;-66
2022/08/09 00:52:36;;;;;;;2.88;2.40;;;18.40;68.50;;;;;;4944851;28;20035;-67
2022/08/09 00:55:02;;;;;;;5.07;3.20;;;18.40;68.40;;;;;;4947171;28;20045;-67
2022/08/09 00:57:30;;;;;;;2.70;2.20;;;18.40;68.30;;;;;;4946528;29;20031;-67
2022/08/09 00:59:55;;;;;;;3.53;2.47;;;18.40;68.60;;;;;;4947163;29;20046;-67
2022/08/09 01:02:26;;;;;;;4.00;2.60;;;18.50;68.50;;;;;;4942779;29;20039;-67
2022/08/09 01:05:04;;;;;;;8.50;2.72;;;18.50;68.40;;;;;;4942415;28;20186;-66
2022/08/09 01:07:38;;;;;;;4.07;2.67;;;18.50;68.40;;;;;;4942289;29;20154;-66
2022/08/09 01:10:07;;;;;;;3.08;2.03;;;18.50;68.40;;;;;;4937879;29;20027;-67
2022/08/09 01:13:05;;;;;;;3.00;2.65;;;18.50;68.40;;;;;;4944540;29;20043;-66
2022/08/09 01:15:44;;;;;;;3.80;2.78;;;18.40;68.50;;;;;;4943561;29;20492;-66
2022/08/09 01:18:17;;;;;;;4.38;2.50;;;18.40;68.90;;;;;;4944336;28;20546;-66
2022/08/09 01:21:12;;;;;;;3.88;2.45;;;18.30;69.00;;;;;;4944853;29;20042;-66
2022/08/09 01:23:59;;;;;;;4.30;2.38;;;18.30;69.10;;;;;;4942911;29;20214;-66
2022/08/09 01:26:58;;;;;;;4.20;2.70;;;18.20;69.40;;;;;;4944300;29;20089;-67
2022/08/09 01:29:50;;;;;;;5.93;2.92;;;18.20;69.50;;;;;;4940142;29;20485;-67
2022/08/09 01:32:18;;;;;;;4.63;2.88;;;18.20;69.80;;;;;;4944838;29;20051;-66
2022/08/09 01:34:48;;;;;;;4.35;2.97;;;18.20;69.90;;;;;;4946173;28;20019;-67
2022/08/09 01:37:17;;;;;;;4.50;2.85;;;18.10;70.00;;;;;;4943555;28;20032;-66
2022/08/09 01:39:47;;;;;;;5.90;2.78;;;18.10;70.10;;;;;;4944308;29;20042;-66
2022/08/09 01:42:15;;;;;;;4.55;2.70;;;18.10;70.10;;;;;;4941477;29;20039;-66
2022/08/09 01:44:42;;;;;;;5.03;2.80;;;18.10;70.10;;;;;;4940957;28;20038;-66
2022/08/09 01:47:09;;;;;;;4.20;2.97;;;18.10;70.30;;;;;;4937753;29;20050;-66
2022/08/09 01:49:36;;;;;;;5.30;2.60;;;18.10;70.20;;;;;;4943648;28;20066;-66
2022/08/09 01:52:09;;;;;;;4.57;2.63;;;18.10;70.30;;;;;;4945528;29;20035;-67
2022/08/09 01:54:39;;;;;;;5.75;3.13;;;18.10;70.30;;;;;;4942883;28;20130;-67
2022/08/09 01:57:12;;;;;;;3.03;2.60;;;18.10;70.50;;;;;;4942942;28;20039;-66
2022/08/09 01:59:42;;;;;;;4.40;2.40;;;18.00;70.50;;;;;;4944696;29;20063;-66
2022/08/09 02:02:10;;;;;;;4.43;2.92;;;18.10;70.60;;;;;;4939114;28;20039;-66
2022/08/09 02:04:38;;;;;;;4.43;2.72;;;18.10;70.60;;;;;;4941295;29;20079;-67
2022/08/09 02:07:14;;;;;;;5.60;2.90;;;18.00;70.40;;;;;;4941330;28;20046;-67
2022/08/09 02:09:49;;;;;;;3.97;3.15;;;18.00;70.60;;;;;;4957544;28;20034;-66
2022/08/09 02:12:17;;;;;;;4.50;2.88;;;18.00;70.80;;;;;;4956776;28;20110;-67
2022/08/09 02:14:46;;;;;;;4.60;2.67;;;18.00;70.80;;;;;;4953684;28;20393;-66
2022/08/09 02:17:13;;;;;;;4.28;2.88;;;17.90;70.90;;;;;;4941449;28;20035;-66
2022/08/09 02:19:39;;;;;;;4.45;2.88;;;17.90;71.40;;;;;;4942548;29;20506;-66
2022/08/09 02:22:15;;;;;;;4.20;2.80;;;17.90;71.60;;;;;;4937915;28;20039;-66
2022/08/09 02:24:46;;;;;;;4.60;2.80;;;17.90;71.60;;;;;;4939906;28;20043;-67
2022/08/09 02:27:15;;;;;;;2.92;2.60;;;17.90;71.40;;;;;;4944217;29;20039;-67
2022/08/09 02:29:47;;;;;;;4.30;3.08;;;18.00;71.50;;;;;;4946126;29;20408;-67
2022/08/09 02:32:17;;;;;;;3.50;3.08;;;18.00;71.50;;;;;;4943118;28;20478;-66
2022/08/09 02:34:46;;;;;;;3.67;2.92;;;18.00;71.20;;;;;;4943627;28;20540;-66
2022/08/09 02:37:15;;;;;;;4.07;3.05;;;18.10;71.20;;;;;;4940314;28;20547;-66
2022/08/09 02:39:47;;;;;;;5.25;2.97;;;18.20;71.20;;;;;;4940636;28;20815;-66
2022/08/09 02:42:18;;;;;;;4.68;3.33;;;18.20;71.00;;;;;;4937993;29;20040;-67
2022/08/09 02:44:51;;;;;;;5.22;3.10;;;18.20;71.00;;;;;;4939625;28;20046;-67
2022/08/09 02:47:20;;;;;;;6.60;2.92;;;18.30;71.00;;;;;;4945676;29;20039;-67
2022/08/09 02:49:55;;;;;;;6.65;3.30;;;18.20;70.90;;;;;;4949271;28;20790;-66
2022/08/09 02:52:27;;;;;;;5.60;3.28;;;18.30;71.10;;;;;;4941252;29;20114;-66
2022/08/09 02:54:54;;;;;;;4.18;2.88;;;18.30;71.00;;;;;;4940124;28;20031;-67
2022/08/09 02:57:20;;;;;;;3.97;2.90;;;18.30;70.90;;;;;;4939318;29;20034;-66
2022/08/09 02:59:48;;;;;;;5.50;3.65;;;18.40;71.00;;;;;;4939606;28;20085;-66
2022/08/09 03:02:15;;;;;;;5.78;3.10;;;18.40;71.10;;;;;;4935888;29;20099;-67
2022/08/09 03:04:42;;;;;;;5.38;3.08;;;18.30;71.00;;;;;;4942171;29;20035;-67
2022/08/09 03:07:09;;;;;;;4.20;3.08;;;18.40;71.00;;;;;;4944170;28;20039;-67
2022/08/09 03:09:36;;;;;;;5.85;3.22;;;18.40;70.90;;;;;;4943624;29;20023;-66
2022/08/09 03:12:03;;;;;;;5.50;3.35;;;18.40;71.10;;;;;;4940720;28;20038;-66
2022/08/09 03:14:30;;;;;;;6.15;3.53;;;18.40;71.10;;;;;;4941357;28;20570;-67
2022/08/09 03:16:58;;;;;;;6.35;3.53;;;18.40;70.90;;;;;;4938622;29;20651;-67
2022/08/09 03:19:26;;;;;;;4.30;3.25;;;18.40;70.90;;;;;;4938317;29;20031;-67
2022/08/09 03:21:53;;;;;;;4.93;3.33;;;18.40;71.10;;;;;;4938507;29;20566;-67
2022/08/09 03:24:20;;;;;;;4.47;3.47;;;18.40;71.10;;;;;;4944473;28;20495;-66
2022/08/09 03:26:47;;;;;;;6.72;3.25;;;18.40;71.30;;;;;;4943801;29;20662;-67
2022/08/09 03:29:14;;;;;;;5.38;3.65;;;18.40;71.00;;;;;;4941739;28;20131;-66
2022/08/09 03:31:41;;;;;;;7.07;3.33;;;18.40;71.10;;;;;;4941428;29;20032;-67
2022/08/09 03:34:08;;;;;;;6.20;3.25;;;18.40;71.10;;;;;;4938547;28;20242;-67
2022/08/09 03:36:35;;;;;;;4.68;3.30;;;18.40;71.30;;;;;;4940114;29;20031;-66
2022/08/09 03:39:02;;;;;;;4.97;3.40;;;18.40;71.30;;;;;;4936234;28;20046;-66
2022/08/09 03:41:28;;;;;;;6.40;3.63;;;18.40;71.20;;;;;;4937384;29;20026;-66
2022/08/09 03:43:54;;;;;;;4.93;3.38;;;18.40;71.30;;;;;;4944473;28;20039;-66
2022/08/09 03:46:20;;;;;;;5.25;3.30;;;18.50;71.40;;;;;;4942368;28;20031;-66
2022/08/09 03:48:56;;;;;;;6.00;3.13;;;18.40;71.40;;;;;;4942768;29;20042;-67
2022/08/09 03:51:23;;;;;;;;;;;18.50;71.30;;;;;;4940628;29;20548;-64
2022/08/09 03:53:50;;;;;;;4.93;3.00;;;18.50;71.30;;;;;;4939927;28;19914;-67
2022/08/09 03:56:16;;;;;;;8.05;3.83;;;18.50;71.40;;;;;;4937854;29;20048;-66
2022/08/09 03:58:42;;;;;;;5.22;3.67;;;18.50;71.40;;;;;;4937860;28;20023;-67
2022/08/09 04:01:08;;;;;;;6.45;3.83;;;18.60;72.30;;;;;;4938395;29;20032;-67
2022/08/09 04:03:36;;;;;;;5.25;3.60;;;18.60;71.50;;;;;;4944824;28;20224;-66
2022/08/09 04:06:02;;;;;;;4.22;3.10;;;18.60;71.30;;;;;;4943781;29;20039;-66
2022/08/09 04:08:28;;;;;;;5.35;3.70;;;18.60;71.40;;;;;;4943221;29;20417;-66
2022/08/09 04:10:54;;;;;;;5.45;3.75;;;18.60;71.50;;;;;;4940311;28;20032;-66
2022/08/09 04:13:19;;;;;;;5.03;3.55;;;18.60;71.60;;;;;;4940858;28;20724;-68
2022/08/09 04:15:45;;;;;;;5.95;3.60;;;18.60;71.50;;;;;;4941772;28;20086;-68
2022/08/09 04:18:12;;;;;;;6.97;3.65;;;18.70;71.20;;;;;;4938993;29;20721;-67
2022/08/09 04:20:38;;;;;;;5.85;3.88;;;18.70;71.40;;;;;;4944826;28;20399;-67
2022/08/09 04:23:04;;;;;;;5.28;3.78;;;18.70;71.40;;;;;;4946566;28;20039;-66
2022/08/09 04:25:30;;;;;;;5.95;4.13;;;18.80;71.50;;;;;;4942985;29;20411;-67
2022/08/09 04:27:56;;;;;;;6.50;3.53;;;18.80;71.60;;;;;;4944556;28;20047;-67
2022/08/09 04:30:22;;;;;;;7.47;4.30;;;18.80;71.60;;;;;;4942762;29;20039;-67
2022/08/09 04:32:49;;;;;;;8.43;4.10;;;18.80;71.60;;;;;;4941764;29;20474;-66
2022/08/09 04:35:15;;;;;;;6.85;3.80;;;18.80;71.30;;;;;;4939393;29;20028;-66
2022/08/09 04:37:41;;;;;;;6.75;4.20;;;18.90;71.30;;;;;;4940515;28;20802;-67
2022/08/09 04:40:09;;;;;;;6.18;4.03;;;18.90;71.30;;;;;;4947715;28;20476;-67
2022/08/09 04:42:35;;;;;;;6.38;3.83;;;18.90;71.40;;;;;;4946135;29;20049;-66
2022/08/09 04:45:00;;;;;;;6.63;3.83;;;18.90;71.40;;;;;;4944571;28;20476;-67
2022/08/09 04:47:27;;;;;;;6.70;4.13;;;19.00;71.40;;;;;;4944082;29;20062;-67
2022/08/09 04:49:54;;;;;;;5.38;3.30;;;19.00;71.30;;;;;;4942868;29;20031;-66
2022/08/09 04:52:28;;;;;;;5.85;3.65;;;19.00;71.20;;;;;;4940978;29;20047;-66
2022/08/09 04:54:59;;;;;;;5.35;3.80;;;19.00;71.40;;;;;;4939250;28;20039;-67
2022/08/09 04:57:25;;;;;;;5.65;3.80;;;19.10;71.30;;;;;;4943405;29;20037;-66
2022/08/09 04:59:53;;;;;;;6.43;3.83;;;19.10;71.10;;;;;;4946909;29;20123;-67
2022/08/09 05:02:19;;;;;;;6.75;3.78;;;19.10;70.90;;;;;;4944722;28;20127;-67
2022/08/09 05:04:44;;;;;;;6.68;3.90;;;19.10;70.90;;;;;;4944540;29;20500;-67
2022/08/09 05:07:10;;;;;;;5.45;3.50;;;19.10;71.00;;;;;;4941558;29;20579;-67
2022/08/09 05:09:36;;;;;;;7.18;3.67;;;19.20;70.90;;;;;;4942995;29;20039;-66
2022/08/09 05:12:02;;;;;;;4.25;3.20;;;19.20;70.60;;;;;;4938942;29;20035;-66
2022/08/09 05:14:30;;;;;;;6.72;4.18;;;19.30;70.70;;;;;;4940208;29;20115;-67
2022/08/09 05:16:58;;;;;;;4.28;3.20;;;19.30;70.80;;;;;;4943761;28;20049;-67
2022/08/09 05:19:28;;;;;;;5.72;3.97;;;19.40;70.30;;;;;;4945935;29;20043;-67
2022/08/09 05:21:54;;;;;;;7.35;3.65;;;19.40;70.00;;;;;;4942544;29;20031;-67
2022/08/09 05:24:20;;;;;;;5.38;3.40;;;19.50;70.00;;;;;;4941507;28;20088;-66
2022/08/09 05:26:46;;;;;;;6.80;3.50;;;19.50;69.60;;;;;;4943001;29;20067;-66
2022/08/09 05:29:18;;;;;;;4.60;3.17;;;19.60;69.60;;;;;;4939661;29;20039;-67
2022/08/09 05:31:45;;;;;;;6.88;3.53;;;19.70;69.70;;;;;;4940473;29;20046;-66
2022/08/09 05:34:11;;;;;;;6.43;3.58;;;19.70;69.30;;;;;;4937316;29;20035;-66
2022/08/09 05:36:37;;;;;;;5.30;3.28;;;19.80;69.40;;;;;;4946999;29;20559;-66
2022/08/09 05:39:02;;;;;;;4.38;3.00;;;19.80;68.80;;;;;;4944889;29;20145;-66
2022/08/09 05:41:28;;;;;;;4.78;3.33;;;19.90;69.40;;;;;;4944212;29;20045;-66
2022/08/09 05:43:54;;;;;;;5.20;3.13;;;20.00;68.70;;;;;;4942438;28;20068;-67
2022/08/09 05:46:20;;;;;;;5.88;3.30;;;20.00;68.70;;;;;;4941001;29;20031;-67
2022/08/09 05:48:46;;;;;;;5.97;3.50;;;20.20;68.20;;;;;;4941171;28;20449;-67
2022/08/09 05:51:11;;;;;;;6.45;4.13;;;20.30;67.70;;;;;;4937774;29;20028;-67
2022/08/09 05:53:37;;;;;;;5.43;3.83;;;20.30;67.60;;;;;;4939122;28;20597;-67
2022/08/09 05:56:03;;;;;;;5.15;3.58;;;20.30;67.70;;;;;;4945869;28;20178;-67
2022/08/09 05:58:29;;;;;;;4.10;3.15;;;20.40;67.60;;;;;;4945293;29;20027;-67
2022/08/09 06:00:54;;;;;;;5.00;3.60;;;20.50;67.30;;;;;;4943636;28;20510;-67
2022/08/09 06:03:20;;;;;;;8.18;3.90;;;20.60;67.20;;;;;;4941452;29;20070;-67
2022/08/09 06:05:46;;;;;;;5.00;3.50;;;20.60;67.10;;;;;;4943427;28;20039;-67
2022/08/09 06:08:11;;;;;;;7.78;3.85;;;20.70;67.00;;;;;;4937999;29;20078;-67
2022/08/09 06:10:37;;;;;;;4.30;3.40;;;20.70;66.60;;;;;;4939837;28;20401;-67
2022/08/09 06:13:08;;;;;;;7.43;3.40;;;20.80;66.30;;;;;;4939042;28;20027;-67
2022/08/09 06:15:33;;;;;;;5.18;3.60;;;20.90;66.70;;;;;;4942415;29;20035;-67
2022/08/09 06:17:59;;;;;;;4.97;3.33;;;21.00;66.50;;;;;;4943729;28;20039;-66
2022/08/09 06:20:25;;;;;;;5.45;3.78;;;21.00;66.40;;;;;;4946400;28;20057;-67
2022/08/09 06:22:51;;;;;;;8.18;4.05;;;21.10;65.90;;;;;;4947124;28;20034;-67
2022/08/09 06:25:17;;;;;;;4.00;3.40;;;21.20;65.60;;;;;;4940502;28;20046;-67
2022/08/09 06:27:42;;;;;;;6.05;3.90;;;21.30;65.60;;;;;;4940096;28;20023;-67
2022/08/09 06:30:09;;;;;;;6.05;3.65;;;21.40;65.20;;;;;;4936321;28;20487;-67
2022/08/09 06:32:35;;;;;;;4.50;3.60;;;21.40;64.70;;;;;;4948899;28;20059;-67
2022/08/09 06:35:01;;;;;;;7.63;3.88;;;21.40;65.10;;;;;;4944749;28;20059;-67
2022/08/09 06:37:27;;;;;;;6.43;3.72;;;21.40;64.80;;;;;;4942994;29;20082;-65
2022/08/09 06:39:52;;;;;;;6.88;3.85;;;21.50;64.80;;;;;;4942820;29;20064;-67
2022/08/09 06:42:19;;;;;;;6.35;3.65;;;21.50;64.70;;;;;;4939957;29;20036;-67
2022/08/09 06:44:46;;;;;;;4.60;3.33;;;21.50;64.50;;;;;;4940148;28;20651;-67
2022/08/09 06:47:12;;;;;;;4.80;3.35;;;21.50;64.60;;;;;;4936866;29;20040;-67
2022/08/09 06:49:38;;;;;;;5.05;3.30;;;21.60;64.10;;;;;;4938672;29;20559;-66
2022/08/09 06:52:04;;;;;;;3.45;3.08;;;21.60;64.20;;;;;;4945038;28;20118;-67
2022/08/09 06:54:30;;;;;;;4.35;3.20;;;21.60;63.20;;;;;;4941108;28;20117;-67
2022/08/09 06:56:56;;;;;;;6.03;3.10;;;21.60;63.70;;;;;;4942733;29;20122;-67
2022/08/09 06:59:22;;;;;;;5.05;3.70;;;21.70;63.80;;;;;;4941065;29;20047;-67
2022/08/09 07:01:48;;;;;;;9.35;3.88;;;21.70;63.60;;;;;;4940996;29;20034;-67
2022/08/09 07:04:14;;;;;;;6.20;3.50;;;21.80;63.30;;;;;;4937698;29;20122;-67
2022/08/09 07:06:40;;;;;;;6.95;3.65;;;21.80;63.40;;;;;;4938821;29;20035;-65
2022/08/09 07:09:05;;;;;;;6.28;3.55;;;22.00;62.40;;;;;;4938838;29;20110;-67
2022/08/09 07:11:32;;;;;;;7.15;3.13;;;22.00;61.60;;;;;;4944765;28;20027;-67
2022/08/09 07:13:58;;;;;;;5.20;3.38;;;22.00;61.20;;;;;;4943490;28;20034;-67
2022/08/09 07:16:24;;;;;;;5.25;3.17;;;22.00;61.60;;;;;;4941922;29;20039;-67
2022/08/09 07:18:50;;;;;;;6.35;3.10;;;22.00;61.50;;;;;;4941794;28;20708;-67
2022/08/09 07:21:16;;;;;;;3.40;2.95;;;22.10;61.80;;;;;;4938724;29;20082;-66
2022/08/09 07:23:42;;;;;;;5.00;2.92;;;22.20;61.40;;;;;;4939262;28;20090;-67
2022/08/09 07:26:08;;;;;;;5.75;3.30;;;22.30;60.10;;;;;;4935282;29;20485;-67
2022/08/09 07:28:34;;;;;;;7.55;3.15;;;22.50;59.50;;;;;;4941698;29;20395;-67
2022/08/09 07:31:00;;;;;;;5.50;3.25;;;22.50;59.50;;;;;;4944273;29;20035;-67
2022/08/09 07:33:25;;;;;;;5.97;3.30;;;22.60;59.30;;;;;;4942314;29;20052;-67
2022/08/09 07:35:51;;;;;;;7.03;2.90;;;22.70;58.80;;;;;;4942184;28;20841;-67
2022/08/09 07:38:17;;;;;;;2.85;2.35;;;22.80;58.10;;;;;;4939743;29;20035;-67
2022/08/09 07:40:43;;;;;;;7.88;3.50;;;22.80;58.00;;;;;;4940510;29;20480;-67
2022/08/09 07:43:08;;;;;;;3.30;2.50;;;22.90;57.00;;;;;;4935948;29;20035;-67
2022/08/09 07:45:34;;;;;;;4.30;2.40;;;23.00;56.80;;;;;;4938092;28;20415;-67
2022/08/09 07:48:00;;;;;;;3.15;2.38;;;23.10;56.40;;;;;;4943614;28;20510;-67
2022/08/09 07:50:27;;;;;;;5.40;2.60;;;23.30;56.50;;;;;;4947678;29;20035;-67
2022/08/09 07:52:54;;;;;;;8.38;2.85;;;23.40;56.30;;;;;;4951697;28;20039;-67
2022/08/09 07:55:20;;;;;;;4.15;2.60;;;23.50;55.50;;;;;;4956889;28;20081;-67
2022/08/09 07:57:47;;;;;;;5.95;2.95;;;23.60;54.30;;;;;;4948611;28;20798;-67
2022/08/09 08:00:15;;;;;;;4.28;2.58;;;23.50;54.20;;;;;;4941941;29;20040;-67
2022/08/09 08:02:41;;;;;;;4.68;2.42;;;23.60;54.80;;;;;;4942857;29;20034;-67
2022/08/09 08:05:08;;;;;;;4.68;2.20;;;23.70;55.50;;;;;;4942758;29;20039;-67
2022/08/09 08:07:34;;;;;;;5.30;2.40;;;23.80;55.50;;;;;;4949324;29;20027;-67
2022/08/09 08:10:00;;;;;;;5.85;2.65;;;24.00;55.50;;;;;;4948908;28;20534;-67
2022/08/09 08:12:25;;;;;;;5.20;3.10;;;24.10;54.60;;;;;;4946125;29;20038;-67
2022/08/09 08:14:51;;;;;;;3.35;2.38;;;24.30;54.10;;;;;;4945822;29;20031;-67
2022/08/09 08:17:17;;;;;;;3.72;2.63;;;24.50;54.00;;;;;;4942764;29;20032;-67
2022/08/09 08:19:43;;;;;;;4.07;2.30;;;24.60;53.10;;;;;;4943330;28;20035;-67
2022/08/09 08:22:09;;;;;;;5.82;2.97;;;24.70;52.80;;;;;;4939581;29;20043;-67
2022/08/09 08:24:34;;;;;;;3.65;2.75;;;24.80;52.50;;;;;;4941992;29;20494;-67
2022/08/09 08:27:00;;;;;;;4.15;2.83;;;24.70;52.20;;;;;;4949027;28;20039;-67
2022/08/09 08:29:26;;;;;;;4.60;2.58;;;24.70;52.00;;;;;;4950104;28;20051;-67
2022/08/09 08:31:52;;;;;;;4.22;2.10;;;24.70;52.10;;;;;;4956463;28;20038;-68
2022/08/09 08:34:18;;;;;;;4.53;2.60;;;24.80;52.00;;;;;;4954609;28;20035;-67
2022/08/09 08:36:43;;;;;;;5.63;2.53;;;24.80;50.70;;;;;;4957438;28;20110;-67
2022/08/09 08:39:10;;;;;;;5.38;2.53;;;24.90;51.00;;;;;;4961334;28;20706;-68
2022/08/09 08:41:37;;;;;;;4.00;2.25;;;24.90;50.80;;;;;;4957731;28;20787;-67
2022/08/09 08:44:03;;;;;;;3.85;2.30;;;25.00;50.60;;;;;;4958149;28;20035;-68
2022/08/09 08:46:39;;;;;;;6.07;2.60;;;25.00;50.60;;;;;;4955457;28;20070;-67
2022/08/09 08:49:09;;;;;;;5.60;2.42;;;25.10;50.30;;;;;;4953902;28;21227;-67
2022/08/09 08:51:36;;;;;;;3.83;2.10;;;25.00;48.70;;;;;;4949860;28;20563;-67
2022/08/09 08:54:06;;;;;;;2.88;2.15;;;25.10;49.00;;;;;;4942697;28;20042;-67
2022/08/09 08:56:39;;;;;;;4.97;2.20;;;25.20;48.60;;;;;;4942298;29;20131;-67
2022/08/09 08:59:08;;;;;;;4.30;1.77;;;25.20;48.50;;;;;;4937507;28;20046;-67
2022/08/09 09:01:36;;;;;;;3.83;2.30;;;25.30;47.70;;;;;;4939726;29;20071;-67
2022/08/09 09:04:03;;;;;;;6.00;2.35;;;25.30;47.20;;;;;;4944412;28;20039;-67
2022/08/09 09:06:32;;;;;;;6.18;1.67;;;25.30;47.10;;;;;;4946914;29;20027;-67
2022/08/09 09:08:59;;;;;;;2.50;1.90;;;25.30;47.70;;;;;;4945346;28;20117;-67
2022/08/09 09:11:27;;;;;;;4.78;2.17;;;25.30;47.50;;;;;;4943621;29;20405;-67
2022/08/09 09:13:56;;;;;;;4.53;2.15;;;25.50;48.10;;;;;;4942204;28;20027;-67
2022/08/09 09:16:22;;;;;;;2.35;1.70;;;25.60;47.40;;;;;;4941487;29;20043;-67
2022/08/09 09:18:53;;;;;;;2.42;1.88;;;25.70;46.20;;;;;;4940716;28;20035;-67
2022/08/09 09:21:19;;;;;;;9.38;2.22;;;25.80;46.90;;;;;;4943357;29;20059;-67
2022/08/09 09:23:45;;;;;;;5.22;2.17;;;25.80;46.80;;;;;;4946699;28;20488;-67
2022/08/09 09:26:12;;;;;;;3.70;1.90;;;25.90;46.50;;;;;;4945102;28;20105;-67
2022/08/09 09:28:43;;;;;;;2.65;1.98;;;26.00;46.00;;;;;;4945407;29;20024;-67
2022/08/09 09:31:17;;;;;;;4.85;1.95;;;26.10;45.30;;;;;;4942110;28;20063;-67
2022/08/09 09:33:43;;;;;;;3.42;1.90;;;26.30;45.90;;;;;;4941536;29;20043;-67
2022/08/09 09:36:14;;;;;;;4.35;2.30;;;26.40;45.50;;;;;;4939477;29;20433;-67
2022/08/09 09:38:45;;;;;;;2.63;1.98;;;26.50;44.70;;;;;;4940501;29;20106;-67
2022/08/09 09:41:25;;;;;;;5.05;2.10;;;26.60;44.40;;;;;;4944976;29;20106;-67
2022/08/09 09:44:03;;;;;;;5.03;2.10;;;26.60;44.00;;;;;;4946070;28;20063;-67
2022/08/09 09:46:31;;;;;;;3.70;2.30;;;26.60;44.70;;;;;;4944719;29;20086;-67
2022/08/09 09:49:11;;;;;;;3.78;2.20;;;26.60;43.20;;;;;;4943280;29;20035;-67
2022/08/09 09:51:39;;;;;;;2.25;1.92;;;26.50;43.60;;;;;;4942055;29;20065;-67
2022/08/09 09:54:10;;;;;;;4.05;2.08;;;26.60;43.90;;;;;;4938950;28;20038;-67
2022/08/09 09:56:39;;;;;;;3.70;1.92;;;26.70;43.40;;;;;;4940277;29;20035;-67
2022/08/09 09:59:10;;;;;;;4.75;2.25;;;26.70;43.20;;;;;;4940720;29;20636;-68
2022/08/09 10:01:37;;;;;;;5.57;2.13;;;26.90;43.30;;;;;;4943598;29;20035;-67
2022/08/09 10:04:23;;;;;;;2.38;1.92;;;27.10;43.20;;;;;;4945026;29;20058;-67
2022/08/09 10:06:49;;;;;;;5.20;1.77;;;27.20;42.20;;;;;;4939913;29;20245;-68
2022/08/09 10:09:15;;;;;;;3.17;1.92;;;27.30;42.70;;;;;;4941120;28;20039;-67
2022/08/09 10:11:42;;;;;;;5.03;2.03;;;27.40;42.00;;;;;;4941715;28;20055;-67
2022/08/09 10:14:25;;;;;;;7.00;2.42;;;27.40;41.30;;;;;;4937321;29;20122;-67
2022/08/09 10:16:52;;;;;;;2.85;2.00;;;27.50;41.40;;;;;;4940087;29;20035;-67
2022/08/09 10:19:17;;;;;;;1.90;1.70;;;27.40;41.20;;;;;;4944674;29;20036;-67
2022/08/09 10:21:48;;;;;;;4.55;1.90;;;27.20;41.10;;;;;;4946472;29;20042;-67
2022/08/09 10:24:17;;;;;;;4.25;1.80;;;27.20;42.00;;;;;;4942831;28;20035;-67
2022/08/09 10:26:45;;;;;;;3.15;2.00;;;27.20;41.80;;;;;;4957979;28;20031;-67
2022/08/09 10:29:12;;;;;;;5.63;2.42;;;27.30;42.70;;;;;;4940237;29;20464;-67
2022/08/09 10:31:39;;;;;;;5.18;2.20;;;27.40;41.70;;;;;;4941098;29;20465;-69
2022/08/09 10:34:10;;;;;;;5.47;2.08;;;27.50;42.00;;;;;;4936725;29;20071;-67
2022/08/09 10:36:36;;;;;;;6.05;2.30;;;27.60;41.40;;;;;;4940229;29;20046;-68
2022/08/09 10:39:03;;;;;;;4.10;2.10;;;27.50;42.00;;;;;;4945483;29;20097;-67
2022/08/09 10:41:28;;;;;;;3.92;2.17;;;27.60;41.10;;;;;;4943264;29;20034;-67
2022/08/09 10:43:55;;;;;;;2.22;1.80;;;27.50;40.20;;;;;;4943333;28;20031;-68
2022/08/09 10:46:41;;;;;;;2.55;1.80;;;27.40;40.70;;;;;;4941797;29;20047;-68
2022/08/09 10:49:23;;;;;;;6.05;2.03;;;27.50;41.60;;;;;;4939108;28;20712;-67
2022/08/09 10:52:04;;;;;;;4.07;2.33;;;27.60;41.20;;;;;;4939898;29;20085;-67
2022/08/09 10:54:30;;;;;;;4.38;1.77;;;27.50;41.10;;;;;;4939509;29;20042;-68
2022/08/09 10:57:12;;;;;;;3.13;2.20;;;27.50;41.30;;;;;;4942879;29;20050;-67
2022/08/09 10:59:41;;;;;;;4.20;2.20;;;27.60;41.50;;;;;;4940955;28;20082;-68
2022/08/09 11:02:13;;;;;;;2.75;1.77;;;27.70;41.30;;;;;;4942330;28;20147;-67
2022/08/09 11:04:40;;;;;;;3.38;2.10;;;27.90;40.70;;;;;;4942264;29;20170;-67
2022/08/09 11:07:05;;;;;;;7.88;1.88;;;28.00;40.90;;;;;;4939489;28;20586;-68
2022/08/09 11:09:37;;;;;;;5.15;2.10;;;28.30;40.00;;;;;;4940539;29;20035;-68
2022/08/09 11:12:13;;;;;;;10.07;2.78;;;28.20;40.00;;;;;;4936070;28;20047;-68
2022/08/09 11:14:53;;;;;;;3.25;1.63;;;28.40;39.70;;;;;;4939609;29;20069;-67
2022/08/09 11:17:19;;;;;;;3.70;1.80;;;28.40;39.50;;;;;;4945048;28;20036;-67
2022/08/09 11:19:53;;;;;;;8.00;2.10;;;28.40;39.70;;;;;;4944718;29;20024;-68
2022/08/09 11:22:39;;;;;;;3.78;1.98;;;28.50;39.30;;;;;;4940727;29;20516;-68
2022/08/09 11:25:32;;;;;;;3.65;1.77;;;28.30;39.60;;;;;;4940875;28;20043;-68
2022/08/09 11:27:58;;;;;;;2.28;2.03;;;28.30;39.70;;;;;;4939491;29;20063;-68
2022/08/09 11:30:25;;;;;;;6.88;1.77;;;28.50;38.50;;;;;;4938722;29;20111;-68
2022/08/09 11:33:16;;;;;;;2.28;1.70;;;28.50;39.00;;;;;;4938473;29;20050;-68
2022/08/09 11:35:53;;;;;;;3.83;2.00;;;28.50;38.60;;;;;;4941979;28;20035;-67
2022/08/09 11:38:24;;;;;;;4.32;1.95;;;28.50;38.50;;;;;;4943197;28;20032;-68
2022/08/09 11:40:51;;;;;;;2.80;1.75;;;28.40;39.70;;;;;;4940489;29;20130;-68
2022/08/09 11:43:41;;;;;;;5.07;1.83;;;28.40;39.20;;;;;;4939900;29;20059;-67
2022/08/09 11:46:08;;;;;;;3.25;1.58;;;28.20;38.80;;;;;;4938749;29;20523;-68
2022/08/09 11:48:48;;;;;;;2.92;1.63;;;28.20;38.80;;;;;;4939671;29;20439;-68
2022/08/09 11:51:14;;;;;;;5.55;1.83;;;28.30;39.10;;;;;;4936315;29;20043;-67
2022/08/09 11:53:41;;;;;;;6.55;1.85;;;28.40;39.20;;;;;;4944600;28;20462;-68
2022/08/09 11:56:13;;;;;;;6.75;1.70;;;28.30;39.60;;;;;;4943148;28;20035;-67
2022/08/09 11:58:46;;;;;;;2.97;1.70;;;28.30;39.80;;;;;;4942030;29;20480;-68
2022/08/09 12:01:14;;;;;;;1.90;1.77;;;28.40;39.40;;;;;;4940400;28;20486;-67
2022/08/09 12:03:42;;;;;;;2.47;1.88;;;28.50;38.40;;;;;;4940707;29;20117;-68
2022/08/09 12:06:14;;;;;;;2.13;1.77;;;28.50;38.60;;;;;;4937326;28;20067;-68
2022/08/09 12:08:46;;;;;;;5.28;1.83;;;28.60;37.90;;;;;;4941895;29;20031;-68
2022/08/09 12:11:13;;;;;;;3.28;1.80;;;28.80;38.00;;;;;;4939351;29;20045;-67
2022/08/09 12:13:44;;;;;;;3.88;2.03;;;29.00;37.80;;;;;;4944622;28;20496;-68
2022/08/09 12:16:18;;;;;;;3.45;1.90;;;29.10;37.50;;;;;;4942546;29;20027;-67
2022/08/09 12:18:46;;;;;;;2.15;1.60;;;29.00;38.00;;;;;;4941392;29;20027;-67
2022/08/09 12:21:22;;;;;;;3.22;1.90;;;28.90;38.20;;;;;;4939371;28;20040;-68
2022/08/09 12:23:49;;;;;;;1.92;1.50;;;28.90;38.70;;;;;;4939026;29;20074;-67
2022/08/09 12:26:16;;;;;;;4.78;1.95;;;28.80;38.30;;;;;;4937803;29;20091;-67
2022/08/09 12:28:49;;;;;;;2.55;1.67;;;28.80;39.40;;;;;;4937529;28;20031;-67
2022/08/09 12:31:23;;;;;;;5.00;1.80;;;28.90;38.00;;;;;;4942998;29;20118;-68
2022/08/09 12:33:49;;;;;;;6.63;1.80;;;28.90;38.20;;;;;;4949381;28;20038;-68
2022/08/09 12:36:16;;;;;;;4.63;1.77;;;29.00;37.20;;;;;;4951016;28;20118;-68
2022/08/09 12:38:41;;;;;;;5.10;1.90;;;29.00;37.40;;;;;;4947011;29;20046;-67
2022/08/09 12:41:07;;;;;;;2.58;1.85;;;29.00;37.40;;;;;;4941672;28;20036;-67
2022/08/09 12:43:34;;;;;;;3.70;1.70;;;29.10;37.00;;;;;;4942786;29;20042;-68
2022/08/09 12:46:00;;;;;;;3.28;1.52;;;29.10;37.00;;;;;;4939364;28;20047;-67
2022/08/09 12:48:27;;;;;;;3.97;2.08;;;29.30;37.00;;;;;;4940736;29;20789;-68
2022/08/09 12:50:53;;;;;;;4.25;1.63;;;29.30;37.50;;;;;;4948182;29;20027;-67
2022/08/09 12:53:30;;;;;;;2.88;1.48;;;29.40;38.00;;;;;;4945442;28;20688;-68
2022/08/09 12:56:09;;;;;;;2.83;1.80;;;29.20;37.50;;;;;;4942324;29;20024;-67